Time;durP1;ratioP1;P1;durP2;ratioP2;P2;SDS_P1;SDS_P2;PMS_P1;PMS_P2;Temp;Humidity;BMP_temperature;BMP_pressure;BME280_temperature;BME280_humidity;BME280_pressure;Samples;Min_cycle;Max_cycle;Signal;HPM_P1;HPM_P2
2023/09/07 00:00:00;;;;;;;7.97;4.10;;;;;;;;;;10385376;28;20046;-79
2023/09/07 00:05:05;;;;;;;8.20;4.07;;;;;;;;;;10389085;28;20045;-79
2023/09/07 00:10:09;;;;;;;6.47;3.60;;;;;;;;;;10390909;28;20128;-79
2023/09/07 00:15:11;;;;;;;10.60;4.13;;;;;;;;;;10387354;28;20155;-80
2023/09/07 00:20:15;;;;;;;11.00;4.50;;;;;;;;;;10393372;28;20754;-79
2023/09/07 00:25:18;;;;;;;10.25;4.47;;;;;;;;;;10388733;28;20065;-79
2023/09/07 00:30:21;;;;;;;10.97;4.40;;;;;;;;;;10389421;28;20070;-79
2023/09/07 00:35:25;;;;;;;8.90;4.40;;;;;;;;;;10400257;28;20514;-79
2023/09/07 00:40:28;;;;;;;8.45;4.20;;;;;;;;;;10400107;28;20123;-79
2023/09/07 00:45:31;;;;;;;9.50;4.57;;;;;;;;;;10391974;28;20037;-79
2023/09/07 00:50:35;;;;;;;10.07;4.50;;;;;;;;;;10379199;28;20034;-79
2023/09/07 00:55:38;;;;;;;8.50;4.35;;;;;;;;;;10386937;28;20042;-79
2023/09/07 01:00:41;;;;;;;9.53;4.83;;;;;;;;;;10393447;28;20124;-79
2023/09/07 01:05:47;;;;;;;9.48;4.60;;;;;;;;;;10391841;28;20223;-79
2023/09/07 01:10:50;;;;;;;11.23;4.47;;;;;;;;;;10392229;28;20117;-80
2023/09/07 01:16:30;;;;;;;9.95;4.65;;;;;;;;;;10384034;28;20049;-79
2023/09/07 01:21:35;;;;;;;6.40;4.07;;;;;;;;;;10383907;28;20061;-79
2023/09/07 01:26:38;;;;;;;8.95;4.40;;;;;;;;;;10378072;28;20115;-80
2023/09/07 01:31:41;;;;;;;10.68;4.32;;;;;;;;;;10397778;28;20107;-79
2023/09/07 01:36:45;;;;;;;8.73;4.80;;;;;;;;;;10397647;28;20045;-79
2023/09/07 01:41:47;;;;;;;7.97;4.35;;;;;;;;;;10392521;28;20049;-79
2023/09/07 01:46:50;;;;;;;10.40;4.63;;;;;;;;;;10394352;28;20100;-79
2023/09/07 01:51:54;;;;;;;8.73;4.93;;;;;;;;;;10395074;28;20117;-79
2023/09/07 01:56:56;;;;;;;8.88;4.50;;;;;;;;;;10390199;28;20050;-79
2023/09/07 02:01:59;;;;;;;9.25;4.80;;;;;;;;;;10396309;28;20216;-79
2023/09/07 02:07:04;;;;;;;9.68;4.97;;;;;;;;;;10393430;28;20555;-79
2023/09/07 02:12:06;;;;;;;9.65;4.97;;;;;;;;;;10397704;28;20084;-79
2023/09/07 02:17:09;;;;;;;11.37;4.97;;;;;;;;;;10386878;28;20120;-79
2023/09/07 02:22:13;;;;;;;12.60;5.87;;;;;;;;;;10397969;28;20108;-79
2023/09/07 02:27:16;;;;;;;10.35;5.30;;;;;;;;;;10404404;28;20141;-79
2023/09/07 02:32:18;;;;;;;11.17;5.77;;;;;;;;;;10391887;28;20100;-79
2023/09/07 02:37:23;;;;;;;9.90;5.07;;;;;;;;;;10395566;28;20428;-79
2023/09/07 02:42:25;;;;;;;9.93;5.53;;;;;;;;;;10387684;28;20523;-79
2023/09/07 02:47:28;;;;;;;10.50;5.13;;;;;;;;;;10397252;28;20635;-79
2023/09/07 02:52:32;;;;;;;9.15;5.07;;;;;;;;;;10387099;28;20438;-79
2023/09/07 02:57:35;;;;;;;11.07;5.15;;;;;;;;;;10393843;28;20064;-79
2023/09/07 03:02:38;;;;;;;11.13;5.45;;;;;;;;;;10387545;28;20095;-79
2023/09/07 03:07:42;;;;;;;11.00;5.17;;;;;;;;;;10399956;28;20107;-79
2023/09/07 03:12:45;;;;;;;10.27;5.22;;;;;;;;;;10393837;28;20091;-79
2023/09/07 03:17:47;;;;;;;11.10;5.57;;;;;;;;;;10393088;28;20042;-80
2023/09/07 03:22:51;;;;;;;10.07;5.53;;;;;;;;;;10399724;28;20068;-79
2023/09/07 03:27:54;;;;;;;;;;;;;;;;;;10391888;28;20128;-79
2023/09/07 03:32:56;;;;;;;12.68;5.75;;;;;;;;;;10388354;28;20433;-78
2023/09/07 03:38:00;;;;;;;11.75;6.57;;;;;;;;;;10391267;28;20617;-79
2023/09/07 03:43:07;;;;;;;14.23;6.57;;;;;;;;;;10399370;28;20125;-80
2023/09/07 03:48:11;;;;;;;13.05;6.88;;;;;;;;;;10384884;28;20133;-78
2023/09/07 03:53:15;;;;;;;15.77;7.43;;;;;;;;;;10390687;28;20033;-78
2023/09/07 03:58:17;;;;;;;12.60;6.50;;;;;;;;;;10391121;28;20049;-79
2023/09/07 04:03:20;;;;;;;15.65;7.00;;;;;;;;;;10394729;28;20104;-79
2023/09/07 04:08:24;;;;;;;16.00;7.10;;;;;;;;;;10388725;28;20207;-78
2023/09/07 04:13:27;;;;;;;13.07;6.60;;;;;;;;;;10387434;28;20124;-78
2023/09/07 04:18:30;;;;;;;17.00;6.90;;;;;;;;;;10394104;28;20108;-79
2023/09/07 04:23:35;;;;;;;12.75;6.72;;;;;;;;;;10396328;28;20038;-78
2023/09/07 04:28:38;;;;;;;13.70;6.93;;;;;;;;;;10396914;28;20049;-79
2023/09/07 04:33:40;;;;;;;13.77;7.07;;;;;;;;;;10391264;28;20124;-79
2023/09/07 04:38:44;;;;;;;15.50;7.35;;;;;;;;;;10394438;28;20411;-79
2023/09/07 04:43:47;;;;;;;17.50;7.95;;;;;;;;;;10393998;28;20044;-79
2023/09/07 04:48:49;;;;;;;14.15;7.63;;;;;;;;;;10390115;28;20391;-79
2023/09/07 04:53:53;;;;;;;15.45;7.28;;;;;;;;;;10394871;28;20491;-79
2023/09/07 04:58:57;;;;;;;13.60;7.15;;;;;;;;;;10384315;28;20411;-79
2023/09/07 05:04:01;;;;;;;15.85;6.80;;;;;;;;;;10385626;28;20041;-79
2023/09/07 05:09:06;;;;;;;14.88;7.20;;;;;;;;;;10393208;28;20045;-79
2023/09/07 05:14:08;;;;;;;15.20;6.63;;;;;;;;;;10388547;28;20480;-78
2023/09/07 05:19:11;;;;;;;11.93;6.28;;;;;;;;;;10396787;28;20072;-79
2023/09/07 05:24:15;;;;;;;12.93;6.40;;;;;;;;;;10391434;28;20096;-81
2023/09/07 05:29:18;;;;;;;15.57;6.22;;;;;;;;;;10389208;28;20050;-78
2023/09/07 05:34:20;;;;;;;13.02;5.80;;;;;;;;;;10395671;28;20132;-80
2023/09/07 05:39:24;;;;;;;13.02;5.97;;;;;;;;;;10401360;28;20072;-79
2023/09/07 05:44:27;;;;;;;15.60;7.10;;;;;;;;;;10404772;28;20640;-79
2023/09/07 05:49:30;;;;;;;10.98;6.05;;;;;;;;;;10402988;28;20537;-79
2023/09/07 05:54:34;;;;;;;16.47;6.27;;;;;;;;;;10400887;28;20099;-79
2023/09/07 05:59:36;;;;;;;11.82;5.57;;;;;;;;;;10394165;28;20295;-79
2023/09/07 06:04:39;;;;;;;11.95;5.90;;;;;;;;;;10393977;28;20049;-79
2023/09/07 06:09:43;;;;;;;10.30;5.97;;;;;;;;;;10405654;28;20037;-79
2023/09/07 06:14:46;;;;;;;13.07;6.07;;;;;;;;;;10402090;28;20037;-78
2023/09/07 06:19:49;;;;;;;15.37;6.83;;;;;;;;;;10397430;28;20045;-80
2023/09/07 06:24:53;;;;;;;14.63;6.57;;;;;;;;;;10395258;28;20052;-79
2023/09/07 06:29:55;;;;;;;13.93;6.93;;;;;;;;;;10394556;28;20490;-80
2023/09/07 06:34:58;;;;;;;11.82;6.47;;;;;;;;;;10402317;28;20088;-80
2023/09/07 06:40:03;;;;;;;10.90;6.23;;;;;;;;;;10409521;28;20141;-78
2023/09/07 06:45:07;;;;;;;10.77;6.07;;;;;;;;;;10403594;28;20508;-79
2023/09/07 06:50:10;;;;;;;;;;;;;;;;;;10398261;28;20033;-78
2023/09/07 06:55:13;;;;;;;9.95;5.50;;;;;;;;;;10406889;28;20003;-79
2023/09/07 07:00:16;;;;;;;9.23;5.03;;;;;;;;;;10404660;28;20037;-82
2023/09/07 07:05:20;;;;;;;10.32;5.88;;;;;;;;;;10397372;28;20394;-79
2023/09/07 07:10:31;;;;;;;8.30;5.30;;;;;;;;;;10402179;28;20057;-80
2023/09/07 07:15:35;;;;;;;10.60;5.80;;;;;;;;;;10401288;28;20046;-80
2023/09/07 07:20:57;;;;;;;8.43;5.80;;;;;;;;;;10392711;28;20045;-80
2023/09/07 07:26:00;;;;;;;8.68;5.80;;;;;;;;;;10399899;28;20041;-80
2023/09/07 07:31:08;;;;;;;11.63;6.32;;;;;;;;;;10398919;28;20042;-80
2023/09/07 07:36:10;;;;;;;10.48;6.30;;;;;;;;;;10398390;28;20068;-79
2023/09/07 07:41:14;;;;;;;9.43;6.57;;;;;;;;;;10397866;28;20494;-80
2023/09/07 07:46:19;;;;;;;8.30;6.55;;;;;;;;;;10397924;28;20037;-80
2023/09/07 07:51:22;;;;;;;15.57;6.75;;;;;;;;;;10390653;28;20060;-78
2023/09/07 07:56:27;;;;;;;8.52;6.30;;;;;;;;;;10413685;28;20103;-80
2023/09/07 08:01:34;;;;;;;7.20;6.18;;;;;;;;;;10396201;28;20057;-80
2023/09/07 08:06:36;;;;;;;9.52;6.15;;;;;;;;;;10391214;28;20041;-79
2023/09/07 08:11:41;;;;;;;10.98;6.00;;;;;;;;;;10399636;28;20075;-79
2023/09/07 08:16:44;;;;;;;8.45;5.90;;;;;;;;;;10390061;28;20046;-79
2023/09/07 08:21:47;;;;;;;7.93;6.13;;;;;;;;;;10402494;28;20092;-80
2023/09/07 08:26:54;;;;;;;7.25;6.30;;;;;;;;;;10389142;28;20099;-78
2023/09/07 08:31:57;;;;;;;9.65;6.40;;;;;;;;;;10393677;28;20052;-79
2023/09/07 08:37:00;;;;;;;8.55;5.20;;;;;;;;;;10395720;28;20459;-80
2023/09/07 08:42:05;;;;;;;8.18;5.65;;;;;;;;;;10408349;28;20124;-80
2023/09/07 08:47:08;;;;;;;6.63;5.88;;;;;;;;;;10409680;28;20065;-79
2023/09/07 08:52:11;;;;;;;7.70;5.95;;;;;;;;;;10415233;28;20481;-78
2023/09/07 08:57:15;;;;;;;8.27;6.07;;;;;;;;;;10438081;28;20069;-78
2023/09/07 09:02:18;;;;;;;7.85;6.00;;;;;;;;;;10422997;28;20061;-81
2023/09/07 09:07:21;;;;;;;8.65;6.00;;;;;;;;;;10405243;28;20041;-79
2023/09/07 09:12:26;;;;;;;6.18;5.35;;;;;;;;;;10408141;28;20037;-80
2023/09/07 09:17:29;;;;;;;9.30;6.32;;;;;;;;;;10419534;28;20074;-80
2023/09/07 09:22:32;;;;;;;6.25;5.65;;;;;;;;;;10413572;28;20479;-80
2023/09/07 09:27:36;;;;;;;6.35;5.35;;;;;;;;;;10414337;28;20253;-80
2023/09/07 09:32:41;;;;;;;6.85;5.80;;;;;;;;;;10395835;28;20073;-79
2023/09/07 09:37:44;;;;;;;8.63;6.38;;;;;;;;;;10416151;28;20041;-81
2023/09/07 09:42:48;;;;;;;7.80;6.10;;;;;;;;;;10407495;28;20052;-80
2023/09/07 09:47:51;;;;;;;7.25;5.97;;;;;;;;;;10410116;28;20045;-81
2023/09/07 09:52:54;;;;;;;8.48;6.00;;;;;;;;;;10400682;28;20113;-80
2023/09/07 09:57:58;;;;;;;6.93;6.20;;;;;;;;;;10418343;28;20534;-81
2023/09/07 10:03:03;;;;;;;6.88;6.00;;;;;;;;;;10404971;28;20041;-81
2023/09/07 10:08:09;;;;;;;8.32;5.90;;;;;;;;;;10405032;28;20171;-80
2023/09/07 10:13:14;;;;;;;9.07;6.07;;;;;;;;;;10418395;28;20049;-81
2023/09/07 10:18:18;;;;;;;6.47;5.82;;;;;;;;;;10405534;28;20077;-80
2023/09/07 10:23:21;;;;;;;7.35;5.72;;;;;;;;;;10398643;28;20045;-81
2023/09/07 10:28:26;;;;;;;7.88;5.80;;;;;;;;;;10395753;28;20049;-81
2023/09/07 10:33:28;;;;;;;7.85;5.53;;;;;;;;;;10401200;28;20042;-81
2023/09/07 10:38:35;;;;;;;8.18;5.97;;;;;;;;;;10410490;28;20046;-81
2023/09/07 10:43:47;;;;;;;8.45;5.97;;;;;;;;;;10400247;28;20361;-81
2023/09/07 10:48:49;;;;;;;6.28;5.55;;;;;;;;;;10399153;28;20066;-81
2023/09/07 10:53:55;;;;;;;6.55;5.50;;;;;;;;;;10400863;28;20057;-80
2023/09/07 10:58:59;;;;;;;8.25;6.15;;;;;;;;;;10406721;28;20049;-80
2023/09/07 11:04:02;;;;;;;7.28;5.43;;;;;;;;;;10409277;28;20092;-81
2023/09/07 11:09:08;;;;;;;6.43;5.82;;;;;;;;;;10408600;28;20052;-81
2023/09/07 11:14:12;;;;;;;7.93;5.47;;;;;;;;;;10414118;28;20093;-80
2023/09/07 11:19:15;;;;;;;6.28;5.68;;;;;;;;;;10397425;28;20041;-80
2023/09/07 11:24:18;;;;;;;6.47;5.85;;;;;;;;;;10398606;28;20409;-80
2023/09/07 11:29:23;;;;;;;8.32;5.53;;;;;;;;;;10412734;28;20332;-82
2023/09/07 11:34:25;;;;;;;6.10;5.60;;;;;;;;;;10408107;28;20494;-80
2023/09/07 11:39:29;;;;;;;6.47;5.78;;;;;;;;;;10410158;28;20049;-81
2023/09/07 11:44:33;;;;;;;5.97;5.30;;;;;;;;;;10407858;28;20517;-80
2023/09/07 11:49:36;;;;;;;6.00;5.38;;;;;;;;;;10395565;28;20045;-82
2023/09/07 11:54:38;;;;;;;6.32;5.47;;;;;;;;;;10410706;28;20041;-81
2023/09/07 11:59:42;;;;;;;7.65;5.60;;;;;;;;;;10403854;28;20060;-81
2023/09/07 12:05:00;;;;;;;;;;;;;;;;;;10410432;28;20037;-81
2023/09/07 12:10:03;;;;;;;6.57;5.10;;;;;;;;;;10404453;28;19939;-80
2023/09/07 12:15:08;;;;;;;5.53;5.00;;;;;;;;;;10412210;28;20061;-80
2023/09/07 12:20:13;;;;;;;7.05;5.20;;;;;;;;;;10421838;28;20046;-80
2023/09/07 12:25:16;;;;;;;5.65;4.75;;;;;;;;;;10408414;28;20037;-81
2023/09/07 12:30:24;;;;;;;6.30;4.75;;;;;;;;;;10417704;28;20049;-80
2023/09/07 12:35:27;;;;;;;5.72;4.85;;;;;;;;;;10409847;28;20037;-81
2023/09/07 12:40:30;;;;;;;5.53;4.50;;;;;;;;;;10406526;28;20407;-81
2023/09/07 12:45:36;;;;;;;7.35;4.93;;;;;;;;;;10397338;28;20034;-81
2023/09/07 12:50:40;;;;;;;5.45;4.72;;;;;;;;;;10418676;28;20053;-81
2023/09/07 12:55:43;;;;;;;5.03;4.00;;;;;;;;;;10395155;28;20124;-80
2023/09/07 13:00:47;;;;;;;7.00;4.10;;;;;;;;;;10390805;28;20049;-81
2023/09/07 13:05:50;;;;;;;5.65;4.72;;;;;;;;;;10389767;28;20459;-81
2023/09/07 13:10:53;;;;;;;6.93;4.80;;;;;;;;;;10404894;28;20391;-81
2023/09/07 13:15:57;;;;;;;5.70;4.70;;;;;;;;;;10398751;28;20053;-81
2023/09/07 13:21:00;;;;;;;6.15;4.75;;;;;;;;;;10396241;28;20050;-80
2023/09/07 13:26:03;;;;;;;7.75;5.93;;;;;;;;;;10408686;28;20041;-80
2023/09/07 13:31:07;;;;;;;8.25;4.20;;;;;;;;;;10437370;28;20061;-80
2023/09/07 13:36:10;;;;;;;5.28;3.92;;;;;;;;;;10437993;28;20059;-79
2023/09/07 13:41:13;;;;;;;4.85;3.58;;;;;;;;;;10423359;28;20046;-80
2023/09/07 13:46:17;;;;;;;7.50;3.78;;;;;;;;;;10413338;28;20034;-79
2023/09/07 13:51:20;;;;;;;8.43;4.32;;;;;;;;;;10407427;28;20050;-80
2023/09/07 13:56:22;;;;;;;6.97;3.70;;;;;;;;;;10404353;28;20129;-81
2023/09/07 14:01:26;;;;;;;4.40;3.40;;;;;;;;;;10392808;28;20049;-80
2023/09/07 14:06:29;;;;;;;6.25;3.17;;;;;;;;;;10404561;28;20064;-80
2023/09/07 14:11:33;;;;;;;5.28;3.67;;;;;;;;;;10407462;28;20041;-80
2023/09/07 14:16:37;;;;;;;5.00;3.47;;;;;;;;;;10408721;28;20034;-80
2023/09/07 14:21:40;;;;;;;5.57;3.67;;;;;;;;;;10407251;28;20051;-80
2023/09/07 14:26:42;;;;;;;6.40;3.80;;;;;;;;;;10391317;28;20069;-79
2023/09/07 14:31:46;;;;;;;9.40;4.20;;;;;;;;;;10401741;28;20073;-80
2023/09/07 14:36:49;;;;;;;5.22;3.40;;;;;;;;;;10413619;28;20037;-79
2023/09/07 14:41:53;;;;;;;10.02;3.78;;;;;;;;;;10386982;28;20103;-80
2023/09/07 14:46:57;;;;;;;7.65;3.78;;;;;;;;;;10397036;28;20037;-80
2023/09/07 14:52:00;;;;;;;5.10;3.55;;;;;;;;;;10406666;28;20041;-80
2023/09/07 14:57:03;;;;;;;3.83;3.20;;;;;;;;;;10409822;28;20044;-81
2023/09/07 15:02:07;;;;;;;5.55;3.38;;;;;;;;;;10397128;28;20386;-79
2023/09/07 15:07:10;;;;;;;5.93;3.40;;;;;;;;;;10410708;28;20121;-80
2023/09/07 15:12:13;;;;;;;6.25;3.65;;;;;;;;;;10432622;28;20042;-79
2023/09/07 15:17:18;;;;;;;5.55;2.90;;;;;;;;;;10438050;28;20101;-78
2023/09/07 15:22:20;;;;;;;5.00;3.20;;;;;;;;;;10428764;28;20041;-79
2023/09/07 15:27:23;;;;;;;4.45;2.80;;;;;;;;;;10423452;28;20045;-80
2023/09/07 15:32:27;;;;;;;5.55;3.13;;;;;;;;;;10434708;28;20580;-78
2023/09/07 15:37:30;;;;;;;6.53;3.10;;;;;;;;;;10418555;28;20041;-79
2023/09/07 15:42:32;;;;;;;5.55;3.10;;;;;;;;;;10405480;28;20089;-81
2023/09/07 15:47:36;;;;;;;4.90;3.00;;;;;;;;;;10414834;28;20042;-80
2023/09/07 15:52:47;;;;;;;5.18;3.05;;;;;;;;;;10412571;28;20057;-79
2023/09/07 15:57:49;;;;;;;9.82;3.40;;;;;;;;;;10413370;28;20045;-79
2023/09/07 16:02:53;;;;;;;5.60;2.97;;;;;;;;;;10418816;28;20046;-79
2023/09/07 16:07:56;;;;;;;4.15;2.72;;;;;;;;;;10414070;28;20129;-80
2023/09/07 16:12:59;;;;;;;5.10;3.22;;;;;;;;;;10406424;28;20045;-79
2023/09/07 16:18:04;;;;;;;7.05;3.38;;;;;;;;;;10411218;28;20185;-79
2023/09/07 16:23:09;;;;;;;5.35;3.17;;;;;;;;;;10403302;28;20069;-79
2023/09/07 16:28:12;;;;;;;6.10;2.92;;;;;;;;;;10400158;28;20037;-80
2023/09/07 16:33:16;;;;;;;5.57;3.10;;;;;;;;;;10409207;28;20084;-80
2023/09/07 16:38:18;;;;;;;6.28;3.00;;;;;;;;;;10406123;28;20041;-79
2023/09/07 16:43:21;;;;;;;5.20;2.90;;;;;;;;;;10402383;28;20507;-80
2023/09/07 16:48:26;;;;;;;7.30;3.25;;;;;;;;;;10388221;28;20052;-80
2023/09/07 16:53:29;;;;;;;4.13;2.70;;;;;;;;;;10386115;28;20075;-79
2023/09/07 16:58:32;;;;;;;5.03;3.20;;;;;;;;;;10390246;28;20048;-80
2023/09/07 17:03:39;;;;;;;7.35;3.28;;;;;;;;;;10387925;28;20137;-80
2023/09/07 17:08:42;;;;;;;5.28;3.20;;;;;;;;;;10389014;28;20043;-79
2023/09/07 17:13:44;;;;;;;6.30;3.53;;;;;;;;;;10384573;28;20408;-79
2023/09/07 17:19:05;;;;;;;8.55;3.40;;;;;;;;;;10390823;28;20471;-79
2023/09/07 17:24:08;;;;;;;5.43;3.20;;;;;;;;;;10392489;28;20406;-79
2023/09/07 17:29:11;;;;;;;8.05;3.60;;;;;;;;;;10396985;28;20061;-79
2023/09/07 17:34:15;;;;;;;6.40;3.33;;;;;;;;;;10397149;28;20388;-78
2023/09/07 17:39:18;;;;;;;6.60;3.70;;;;;;;;;;10403967;28;20061;-79
2023/09/07 17:44:21;;;;;;;8.57;3.90;;;;;;;;;;10395544;28;20494;-79
2023/09/07 17:49:25;;;;;;;17.30;8.45;;;;;;;;;;10395157;28;20117;-79
2023/09/07 17:54:27;;;;;;;8.98;4.75;;;;;;;;;;10403060;28;20053;-79
2023/09/07 17:59:30;;;;;;;15.70;6.28;;;;;;;;;;10399610;28;20064;-79
2023/09/07 18:04:34;;;;;;;9.13;4.85;;;;;;;;;;10388682;28;20503;-79
2023/09/07 18:09:36;;;;;;;9.10;5.50;;;;;;;;;;10396619;28;20050;-80
2023/09/07 18:14:39;;;;;;;7.47;4.50;;;;;;;;;;10400022;28;20073;-79
2023/09/07 18:19:43;;;;;;;12.23;5.13;;;;;;;;;;10392554;28;20137;-80
2023/09/07 18:24:46;;;;;;;17.13;9.88;;;;;;;;;;10395685;28;20065;-79
2023/09/07 18:29:49;;;;;;;11.82;4.18;;;;;;;;;;10397354;28;20112;-80
2023/09/07 18:34:53;;;;;;;8.43;4.93;;;;;;;;;;10402817;28;20042;-80
2023/09/07 18:39:55;;;;;;;15.40;8.30;;;;;;;;;;10403659;28;20121;-79
2023/09/07 18:44:59;;;;;;;10.60;4.40;;;;;;;;;;10401996;28;20057;-80
2023/09/07 18:50:03;;;;;;;8.13;3.85;;;;;;;;;;10405162;28;20053;-79
2023/09/07 18:55:06;;;;;;;7.93;3.88;;;;;;;;;;10399430;28;20124;-79
2023/09/07 19:00:09;;;;;;;7.07;3.65;;;;;;;;;;10391895;28;20050;-80
2023/09/07 19:05:13;;;;;;;8.13;4.57;;;;;;;;;;10407502;28;20080;-80
2023/09/07 19:10:16;;;;;;;8.93;3.95;;;;;;;;;;10393987;28;20041;-79
2023/09/07 19:15:18;;;;;;;9.70;4.32;;;;;;;;;;10396360;28;20076;-79
2023/09/07 19:20:22;;;;;;;10.23;4.20;;;;;;;;;;10391812;28;20050;-80
2023/09/07 19:25:25;;;;;;;10.20;4.40;;;;;;;;;;10392763;28;20049;-79
2023/09/07 19:30:29;;;;;;;10.23;4.50;;;;;;;;;;10385746;28;20038;-79
2023/09/07 19:35:32;;;;;;;10.85;4.50;;;;;;;;;;10394471;28;20069;-80
2023/09/07 19:40:35;;;;;;;8.93;3.90;;;;;;;;;;10402624;28;20037;-80
2023/09/07 19:45:38;;;;;;;7.40;4.17;;;;;;;;;;10394505;28;20188;-79
2023/09/07 19:50:43;;;;;;;11.73;5.27;;;;;;;;;;10392950;28;20307;-79
2023/09/07 19:55:48;;;;;;;9.57;4.05;;;;;;;;;;10386921;28;20668;-79
2023/09/07 20:00:50;;;;;;;9.67;4.23;;;;;;;;;;10397749;28;20058;-79
2023/09/07 20:05:55;;;;;;;12.93;5.40;;;;;;;;;;10394858;28;20295;-79
2023/09/07 20:10:58;;;;;;;10.27;4.70;;;;;;;;;;10400078;28;20053;-80
2023/09/07 20:16:00;;;;;;;10.87;5.60;;;;;;;;;;10395658;28;20460;-80
2023/09/07 20:21:04;;;;;;;14.18;5.03;;;;;;;;;;10394394;28;20148;-78
2023/09/07 20:26:07;;;;;;;8.48;4.40;;;;;;;;;;10393715;28;20582;-79
2023/09/07 20:31:10;;;;;;;13.27;5.30;;;;;;;;;;10388021;28;20052;-79
2023/09/07 20:36:15;;;;;;;12.10;4.20;;;;;;;;;;10388580;28;20041;-79
2023/09/07 20:41:18;;;;;;;8.63;3.88;;;;;;;;;;10400186;28;20045;-79
2023/09/07 20:46:21;;;;;;;6.60;3.90;;;;;;;;;;10390387;28;20399;-79
2023/09/07 20:51:25;;;;;;;8.63;4.13;;;;;;;;;;10391052;28;20045;-80
2023/09/07 20:56:28;;;;;;;6.78;3.97;;;;;;;;;;10393160;28;20039;-79
2023/09/07 21:01:30;;;;;;;8.82;3.90;;;;;;;;;;10383573;28;20137;-79
2023/09/07 21:06:35;;;;;;;11.35;5.63;;;;;;;;;;10386456;28;20046;-79
2023/09/07 21:11:38;;;;;;;9.75;4.25;;;;;;;;;;10386000;28;20034;-80
2023/09/07 21:16:40;;;;;;;7.33;3.83;;;;;;;;;;10400313;28;20818;-80
2023/09/07 21:21:44;;;;;;;6.50;3.50;;;;;;;;;;10386137;28;20046;-80
2023/09/07 21:26:47;;;;;;;8.25;4.03;;;;;;;;;;10384331;28;20088;-79
2023/09/07 21:31:50;;;;;;;8.20;3.78;;;;;;;;;;10388398;28;20115;-79
2023/09/07 21:36:54;;;;;;;8.20;4.30;;;;;;;;;;10399645;28;20058;-79
2023/09/07 21:41:57;;;;;;;7.32;4.03;;;;;;;;;;10394289;28;20045;-79
2023/09/07 21:46:59;;;;;;;10.43;4.60;;;;;;;;;;10393670;28;20533;-79
2023/09/07 21:52:04;;;;;;;7.32;4.03;;;;;;;;;;10389129;28;20383;-79
2023/09/07 21:57:07;;;;;;;6.63;4.18;;;;;;;;;;10392581;28;20045;-79
2023/09/07 22:02:10;;;;;;;9.67;4.43;;;;;;;;;;10389850;28;20438;-78
2023/09/07 22:07:14;;;;;;;8.40;4.53;;;;;;;;;;10390245;28;20088;-78
2023/09/07 22:12:16;;;;;;;8.82;4.07;;;;;;;;;;10405916;28;20038;-79
2023/09/07 22:17:19;;;;;;;10.33;4.80;;;;;;;;;;10410122;28;20045;-80
2023/09/07 22:22:26;;;;;;;8.35;4.28;;;;;;;;;;10396555;28;20042;-79
2023/09/07 22:27:28;;;;;;;6.15;3.88;;;;;;;;;;10394352;28;20044;-79
2023/09/07 22:32:31;;;;;;;10.60;4.23;;;;;;;;;;10398845;28;20092;-78
2023/09/07 22:37:35;;;;;;;7.13;4.17;;;;;;;;;;10404094;28;20037;-79
2023/09/07 22:42:38;;;;;;;8.52;4.00;;;;;;;;;;10393040;28;20042;-79
2023/09/07 22:47:40;;;;;;;6.35;3.78;;;;;;;;;;10390676;28;20065;-79
2023/09/07 22:52:44;;;;;;;8.50;4.10;;;;;;;;;;10393477;28;20080;-80
2023/09/07 22:57:47;;;;;;;8.43;4.20;;;;;;;;;;10392640;28;20054;-79
2023/09/07 23:02:50;;;;;;;7.20;3.93;;;;;;;;;;10389120;28;20046;-80
2023/09/07 23:07:54;;;;;;;9.03;3.87;;;;;;;;;;10393298;28;20388;-78
2023/09/07 23:12:56;;;;;;;8.45;4.38;;;;;;;;;;10390172;28;20630;-78
2023/09/07 23:18:00;;;;;;;11.73;4.30;;;;;;;;;;10389074;28;20046;-78
2023/09/07 23:23:04;;;;;;;11.10;4.75;;;;;;;;;;10390655;28;20575;-79
2023/09/07 23:28:06;;;;;;;10.15;4.20;;;;;;;;;;10395537;28;20065;-79
2023/09/07 23:33:09;;;;;;;9.10;4.30;;;;;;;;;;10400745;28;20056;-79
2023/09/07 23:38:13;;;;;;;8.35;4.60;;;;;;;;;;10399167;28;20037;-79
2023/09/07 23:43:16;;;;;;;7.75;4.13;;;;;;;;;;10391750;28;20130;-78
2023/09/07 23:48:18;;;;;;;8.73;4.28;;;;;;;;;;10390412;28;20045;-79
2023/09/07 23:53:23;;;;;;;8.00;4.07;;;;;;;;;;10390717;28;20505;-78
2023/09/07 23:58:25;;;;;;;9.20;4.68;;;;;;;;;;10393790;28;20054;-79
